createdAt,value
2018-12-14T00:00:38.809Z,25.03
2018-12-14T00:03:06.964Z,25.43
2018-12-14T00:05:35.118Z,25.40
2018-12-14T00:08:03.332Z,25.37
2018-12-14T00:10:31.485Z,24.90
2018-12-14T00:12:59.647Z,23.83
2018-12-14T00:15:27.846Z,25.30
2018-12-14T00:17:56.466Z,24.50
2018-12-14T00:20:24.742Z,26.43
2018-12-14T00:22:52.896Z,25.40
2018-12-14T00:25:21.065Z,26.03
2018-12-14T00:27:49.284Z,24.83
2018-12-14T00:30:17.427Z,25.37
2018-12-14T00:32:45.582Z,26.97
2018-12-14T00:35:13.949Z,26.57
2018-12-14T00:37:42.097Z,28.97
2018-12-14T00:40:10.269Z,27.30
2018-12-14T00:42:38.452Z,27.00
2018-12-14T00:45:06.617Z,26.53
2018-12-14T00:47:35.509Z,27.70
2018-12-14T00:50:03.938Z,26.20
2018-12-14T00:52:32.091Z,26.47
2018-12-14T00:55:00.236Z,24.63
2018-12-14T00:57:28.578Z,26.77
2018-12-14T00:59:56.734Z,25.90
2018-12-14T01:02:28.833Z,26.97
2018-12-14T01:04:57.246Z,26.50
2018-12-14T01:07:25.384Z,25.40
2018-12-14T01:09:53.555Z,27.53
2018-12-14T01:12:21.730Z,26.97
2018-12-14T01:14:49.882Z,30.10
2018-12-14T01:17:18.032Z,27.10
2018-12-14T01:19:46.330Z,25.37
2018-12-14T01:22:14.465Z,26.53
2018-12-14T01:24:42.611Z,25.10
2018-12-14T01:27:10.766Z,26.80
2018-12-14T01:29:38.900Z,25.00
2018-12-14T01:32:07.074Z,22.93
2018-12-14T01:34:35.249Z,23.50
2018-12-14T01:37:03.426Z,24.87
2018-12-14T01:39:31.550Z,23.90
2018-12-14T01:42:04.750Z,24.77
2018-12-14T01:44:29.845Z,25.37
2018-12-14T01:46:58.001Z,24.67
2018-12-14T01:49:26.250Z,24.00
2018-12-14T01:51:54.398Z,24.77
2018-12-14T01:54:22.581Z,25.53
2018-12-14T01:56:50.724Z,29.07
2018-12-14T01:59:18.861Z,26.67
2018-12-14T02:01:47.605Z,24.60
2018-12-14T02:04:15.741Z,23.83
2018-12-14T02:06:43.893Z,25.87
2018-12-14T02:09:12.022Z,22.20
2018-12-14T02:11:40.186Z,24.00
2018-12-14T02:14:08.314Z,23.77
2018-12-14T02:16:36.535Z,23.40
2018-12-14T02:19:04.658Z,22.70
2018-12-14T02:21:32.873Z,23.37
2018-12-14T02:24:01.016Z,22.73
2018-12-14T02:26:29.169Z,21.67
2018-12-14T02:31:32.154Z,20.87
2018-12-14T02:34:00.316Z,23.43
2018-12-14T02:36:28.449Z,22.13
2018-12-14T02:38:56.705Z,21.60
2018-12-14T02:41:24.992Z,21.97
2018-12-14T02:43:53.126Z,21.33
2018-12-14T02:46:21.290Z,23.13
2018-12-14T02:48:49.453Z,22.33
2018-12-14T02:51:17.594Z,20.60
2018-12-14T02:53:45.741Z,21.90
2018-12-14T02:56:13.910Z,22.77
2018-12-14T02:58:42.062Z,23.07
2018-12-14T03:01:10.189Z,25.13
2018-12-14T03:03:38.331Z,26.27
2018-12-14T03:06:06.462Z,22.90
2018-12-14T03:08:34.585Z,25.07
2018-12-14T03:11:02.736Z,24.43
2018-12-14T03:13:30.901Z,25.67
2018-12-14T03:15:59.051Z,24.60
2018-12-14T03:18:27.211Z,23.87
2018-12-14T03:20:55.364Z,25.23
2018-12-14T03:23:23.507Z,24.47
2018-12-14T03:25:51.956Z,24.43
2018-12-14T03:28:20.091Z,25.97
2018-12-14T03:30:48.261Z,27.30
2018-12-14T03:33:16.416Z,24.07
2018-12-14T03:35:44.582Z,26.17
2018-12-14T03:38:12.751Z,26.13
2018-12-14T03:40:40.895Z,26.37
2018-12-14T03:43:09.056Z,27.90
2018-12-14T03:45:37.207Z,25.47
2018-12-14T03:48:05.379Z,26.33
2018-12-14T03:50:33.539Z,24.77
2018-12-14T03:53:01.662Z,26.03
2018-12-14T03:55:29.813Z,25.10
2018-12-14T03:57:58.174Z,26.40
2018-12-14T04:00:26.606Z,26.10
2018-12-14T04:02:54.967Z,24.97
2018-12-14T04:05:23.315Z,27.60
2018-12-14T04:07:51.467Z,25.10
2018-12-14T04:10:19.605Z,24.40
2018-12-14T04:12:47.742Z,26.73
2018-12-14T04:15:15.890Z,25.93
2018-12-14T04:17:44.049Z,25.70
2018-12-14T04:20:12.173Z,25.27
2018-12-14T04:22:40.364Z,25.47
2018-12-14T04:25:08.524Z,24.17
2018-12-14T04:27:36.663Z,24.73
2018-12-14T04:30:05.157Z,24.67
2018-12-14T04:32:33.285Z,26.50
2018-12-14T04:35:01.478Z,23.93
2018-12-14T04:37:29.638Z,26.97
2018-12-14T04:39:57.845Z,24.80
2018-12-14T04:42:26.301Z,25.60
2018-12-14T04:44:54.480Z,24.73
2018-12-14T04:47:22.736Z,25.70
2018-12-14T04:49:51.225Z,26.17
2018-12-14T04:52:19.434Z,23.33
2018-12-14T04:54:47.587Z,25.17
2018-12-14T04:57:15.830Z,23.50
2018-12-14T04:59:43.998Z,24.80
2018-12-14T05:02:12.154Z,27.27
2018-12-14T05:04:40.292Z,25.03
2018-12-14T05:07:08.654Z,24.90
2018-12-14T05:09:36.793Z,25.27
2018-12-14T05:12:04.953Z,23.77
2018-12-14T05:14:33.490Z,25.20
2018-12-14T05:17:01.621Z,24.60
2018-12-14T05:19:29.771Z,25.77
2018-12-14T05:21:57.998Z,27.47
2018-12-14T05:24:26.165Z,39.03
2018-12-14T05:26:55.390Z,31.27
2018-12-14T05:29:23.717Z,28.33
2018-12-14T05:31:51.899Z,23.20
2018-12-14T05:34:20.104Z,25.50
2018-12-14T05:36:48.251Z,24.07
2018-12-14T05:39:16.507Z,24.67
2018-12-14T05:41:44.644Z,25.83
2018-12-14T05:44:12.792Z,22.97
2018-12-14T05:46:40.947Z,25.13
2018-12-14T05:49:09.100Z,24.20
2018-12-14T05:51:37.358Z,26.10
2018-12-14T05:54:05.506Z,25.93
2018-12-14T05:56:33.898Z,24.80
2018-12-14T05:59:02.032Z,25.63
2018-12-14T06:01:30.188Z,24.40
2018-12-14T06:03:58.359Z,26.43
2018-12-14T06:06:26.513Z,27.50
2018-12-14T06:08:54.693Z,26.60
2018-12-14T06:11:22.869Z,24.47
2018-12-14T06:13:51.010Z,25.23
2018-12-14T06:16:19.202Z,23.23
2018-12-14T06:18:47.377Z,23.87
2018-12-14T06:21:15.517Z,22.60
2018-12-14T06:23:43.676Z,22.60
2018-12-14T06:26:11.812Z,21.40
2018-12-14T06:28:39.966Z,22.10
2018-12-14T06:31:08.445Z,22.30
2018-12-14T06:33:36.670Z,25.77
2018-12-14T06:36:04.837Z,22.33
2018-12-14T06:38:32.971Z,21.27
2018-12-14T06:41:01.119Z,21.30
2018-12-14T06:43:29.245Z,23.83
2018-12-14T06:45:57.390Z,20.77
2018-12-14T06:48:25.565Z,21.87
2018-12-14T06:50:54.352Z,20.10
2018-12-14T06:53:22.607Z,20.37
2018-12-14T06:55:50.834Z,20.53
2018-12-14T06:58:19.102Z,19.50
2018-12-14T07:00:47.231Z,20.10
2018-12-14T07:03:15.367Z,19.57
2018-12-14T07:05:43.569Z,19.10
2018-12-14T07:08:11.726Z,20.17
2018-12-14T07:10:39.910Z,20.57
2018-12-14T07:13:08.067Z,21.17
2018-12-14T07:15:36.302Z,18.50
2018-12-14T07:18:04.471Z,18.10
2018-12-14T07:20:32.950Z,20.07
2018-12-14T07:23:01.098Z,21.70
2018-12-14T07:25:29.273Z,20.70
2018-12-14T07:27:57.421Z,18.77
2018-12-14T07:30:25.566Z,19.73
2018-12-14T07:32:53.763Z,22.67
2018-12-14T07:35:21.927Z,22.60
2018-12-14T07:37:50.055Z,23.03
2018-12-14T07:40:18.204Z,24.50
2018-12-14T07:42:46.360Z,20.87
2018-12-14T07:45:14.594Z,23.30
2018-12-14T07:47:42.905Z,21.80
2018-12-14T07:50:12.078Z,19.67
2018-12-14T07:52:40.235Z,21.27
2018-12-14T07:55:08.357Z,20.47
2018-12-14T07:57:36.490Z,22.30
2018-12-14T08:00:05.270Z,22.73
2018-12-14T08:02:33.508Z,20.47
2018-12-14T08:05:01.791Z,22.33
2018-12-14T08:07:30.062Z,17.73
2018-12-14T08:09:58.258Z,20.40
2018-12-14T08:12:26.544Z,18.93
2018-12-14T08:14:54.690Z,18.17
2018-12-14T08:17:23.566Z,20.33
2018-12-14T08:19:51.734Z,18.70
2018-12-14T08:22:20.068Z,22.30
2018-12-14T08:24:48.198Z,19.70
2018-12-14T08:27:16.386Z,18.73
2018-12-14T08:29:44.521Z,19.40
2018-12-14T08:32:12.729Z,18.80
2018-12-14T08:34:40.886Z,17.03
2018-12-14T08:37:09.027Z,19.03
2018-12-14T08:39:37.158Z,18.27
2018-12-14T08:42:05.442Z,18.40
2018-12-14T08:44:33.642Z,19.60
2018-12-14T08:47:01.843Z,17.17
2018-12-14T08:49:29.983Z,18.87
2018-12-14T08:51:58.142Z,19.57
2018-12-14T08:54:26.295Z,20.43
2018-12-14T08:56:54.434Z,19.93
2018-12-14T08:59:22.593Z,18.07
2018-12-14T09:01:50.760Z,15.80
2018-12-14T09:04:18.902Z,20.23
2018-12-14T09:06:47.063Z,19.37
2018-12-14T09:09:15.354Z,20.03
2018-12-14T09:11:43.613Z,17.87
2018-12-14T09:14:11.778Z,18.87
2018-12-14T09:16:39.964Z,19.27
2018-12-14T09:19:08.101Z,20.63
2018-12-14T09:21:36.247Z,22.03
2018-12-14T09:24:04.405Z,18.07
2018-12-14T09:26:32.534Z,19.50
2018-12-14T09:29:00.667Z,18.57
2018-12-14T09:31:29.138Z,18.90
2018-12-14T09:33:57.308Z,19.43
2018-12-14T09:36:25.570Z,18.50
2018-12-14T09:38:53.696Z,21.00
2018-12-14T09:41:21.920Z,17.67
2018-12-14T09:43:54.298Z,20.67
2018-12-14T09:46:20.264Z,20.40
2018-12-14T09:48:48.587Z,17.33
2018-12-14T09:51:16.758Z,18.43
2018-12-14T09:53:44.934Z,20.20
2018-12-14T09:56:13.087Z,18.43
2018-12-14T09:58:41.281Z,21.67
2018-12-14T10:01:09.678Z,19.83
2018-12-14T10:03:38.322Z,17.20
2018-12-14T10:06:06.459Z,16.97
2018-12-14T10:08:34.611Z,15.87
2018-12-14T10:11:02.742Z,18.20
2018-12-14T10:13:31.032Z,16.80
2018-12-14T10:15:59.569Z,18.67
2018-12-14T10:18:28.199Z,16.23
2018-12-14T10:20:56.348Z,15.83
2018-12-14T10:23:24.550Z,18.27
2018-12-14T10:25:53.052Z,16.00
2018-12-14T10:28:21.215Z,15.43
2018-12-14T10:30:49.388Z,15.70
2018-12-14T10:33:17.603Z,14.93
2018-12-14T10:35:46.692Z,15.57
2018-12-14T10:38:14.858Z,15.43
2018-12-14T10:40:43.614Z,16.50
2018-12-14T10:43:11.895Z,15.87
2018-12-14T10:45:40.330Z,13.03
2018-12-14T10:48:08.545Z,16.63
2018-12-14T10:50:39.682Z,15.03
2018-12-14T10:53:11.823Z,14.80
2018-12-14T10:55:40.389Z,15.43
2018-12-14T10:58:08.699Z,16.40
2018-12-14T11:00:42.381Z,16.97
2018-12-14T11:03:10.565Z,14.63
2018-12-14T11:05:38.843Z,17.83
2018-12-14T11:08:06.984Z,16.57
2018-12-14T11:10:35.151Z,17.03
2018-12-14T11:13:03.431Z,17.93
2018-12-14T11:15:31.603Z,14.90
2018-12-14T11:17:59.828Z,17.23
2018-12-14T11:20:27.991Z,16.40
2018-12-14T11:22:56.151Z,15.50
2018-12-14T11:25:24.295Z,16.33
2018-12-14T11:27:52.462Z,17.77
2018-12-14T11:30:20.682Z,16.70
2018-12-14T11:32:48.848Z,16.13
2018-12-14T11:35:16.985Z,16.30
2018-12-14T11:37:45.143Z,16.77
2018-12-14T11:40:13.317Z,16.67
2018-12-14T11:42:41.467Z,16.97
2018-12-14T11:45:09.650Z,13.40
2018-12-14T11:47:37.834Z,16.13
2018-12-14T11:50:07.508Z,16.87
2018-12-14T11:52:35.659Z,14.97
2018-12-14T11:55:03.975Z,14.47
2018-12-14T11:57:32.182Z,15.27
2018-12-14T12:00:00.335Z,16.77
2018-12-14T12:02:28.487Z,14.80
2018-12-14T12:04:56.955Z,15.27
2018-12-14T12:07:25.121Z,14.53
2018-12-14T12:09:53.289Z,13.70
2018-12-14T12:12:21.658Z,15.43
2018-12-14T12:14:49.858Z,13.93
2018-12-14T12:17:17.997Z,15.83
2018-12-14T12:19:46.200Z,25.03
2018-12-14T12:22:14.363Z,14.73
2018-12-14T12:24:42.558Z,14.03
2018-12-14T12:27:10.727Z,15.37
2018-12-14T12:29:38.887Z,19.50
2018-12-14T12:32:07.053Z,17.33
2018-12-14T12:34:35.257Z,17.80
2018-12-14T12:37:03.415Z,16.37
2018-12-14T12:39:31.577Z,29.73
2018-12-14T12:41:59.786Z,21.83
2018-12-14T12:44:33.346Z,20.73
2018-12-14T12:46:58.129Z,18.57
2018-12-14T12:49:26.649Z,18.13
2018-12-14T12:51:54.841Z,19.83
2018-12-14T12:54:23.016Z,18.57
2018-12-14T12:56:51.166Z,16.30
2018-12-14T12:59:19.341Z,27.83
2018-12-14T13:01:47.538Z,20.70
2018-12-14T13:04:16.744Z,18.23
2018-12-14T13:06:44.919Z,20.27
2018-12-14T13:09:13.163Z,22.57
2018-12-14T13:11:41.367Z,19.13
2018-12-14T13:14:09.527Z,19.60
2018-12-14T13:16:37.705Z,22.83
2018-12-14T13:19:05.880Z,20.13
2018-12-14T13:21:34.062Z,19.13
2018-12-14T13:24:02.768Z,18.00
2018-12-14T13:26:30.921Z,19.17
2018-12-14T13:28:59.119Z,18.57
2018-12-14T13:31:27.426Z,21.60
2018-12-14T13:33:55.589Z,20.63
2018-12-14T13:36:23.819Z,19.30
2018-12-14T13:38:51.977Z,20.43
2018-12-14T13:41:20.170Z,20.10
2018-12-14T13:43:48.308Z,21.30
2018-12-14T13:46:16.485Z,19.63
2018-12-14T13:48:44.697Z,19.47
2018-12-14T13:51:12.856Z,19.87
2018-12-14T13:53:41.229Z,21.10
2018-12-14T13:56:09.443Z,20.13
2018-12-14T13:58:37.658Z,19.13
2018-12-14T14:01:05.842Z,19.77
2018-12-14T14:03:34.161Z,19.60
2018-12-14T14:06:02.317Z,21.07
2018-12-14T14:08:30.640Z,18.40
2018-12-14T14:10:58.829Z,18.23
2018-12-14T14:13:26.998Z,21.47
2018-12-14T14:15:55.187Z,23.23
2018-12-14T14:18:23.408Z,17.97
2018-12-14T14:20:51.567Z,19.37
2018-12-14T14:23:20.117Z,18.17
2018-12-14T14:25:48.975Z,18.60
2018-12-14T14:28:17.240Z,19.07
2018-12-14T14:30:45.412Z,18.37
2018-12-14T14:33:13.566Z,20.90
2018-12-14T14:35:41.987Z,16.00
2018-12-14T14:38:10.151Z,18.63
2018-12-14T14:40:38.317Z,21.33
2018-12-14T14:43:06.490Z,18.40
2018-12-14T14:45:34.658Z,19.07
2018-12-14T14:48:02.830Z,17.87
2018-12-14T14:50:30.986Z,18.90
2018-12-14T14:52:59.212Z,18.50
2018-12-14T14:55:27.393Z,17.80
2018-12-14T14:57:56.410Z,18.20
2018-12-14T15:00:24.697Z,18.13
2018-12-14T15:02:52.900Z,17.20
2018-12-14T15:05:21.179Z,23.83
2018-12-14T15:07:49.373Z,18.30
2018-12-14T15:10:17.530Z,17.37
2018-12-14T15:12:45.699Z,18.00
2018-12-14T15:15:13.886Z,19.57
2018-12-14T15:17:42.053Z,17.93
2018-12-14T15:20:10.981Z,19.20
2018-12-14T15:22:39.117Z,20.27
2018-12-14T15:25:07.348Z,19.67
2018-12-14T15:27:35.584Z,20.97
2018-12-14T15:30:04.254Z,19.97
2018-12-14T15:32:32.414Z,20.77
2018-12-14T15:35:00.616Z,23.17
2018-12-14T15:37:28.786Z,20.27
2018-12-14T15:39:56.954Z,19.53
2018-12-14T15:42:25.153Z,21.37
2018-12-14T15:44:53.322Z,19.37
2018-12-14T15:47:21.499Z,20.13
2018-12-14T15:49:49.671Z,19.13
2018-12-14T15:52:17.844Z,19.10
2018-12-14T15:54:46.005Z,20.80
2018-12-14T15:57:14.157Z,21.50
2018-12-14T15:59:42.311Z,19.80
2018-12-14T16:02:10.498Z,20.07
2018-12-14T16:04:38.823Z,19.87
2018-12-14T16:07:06.955Z,18.53
2018-12-14T16:09:35.126Z,17.90
2018-12-14T16:12:03.295Z,17.20
2018-12-14T16:14:34.349Z,16.00
2018-12-14T16:17:01.739Z,16.30
2018-12-14T16:19:29.982Z,17.57
2018-12-14T16:21:58.260Z,16.80
2018-12-14T16:24:26.473Z,17.77
2018-12-14T16:26:54.729Z,25.20
2018-12-14T16:29:23.177Z,24.90
2018-12-14T16:31:51.395Z,19.27
2018-12-14T16:34:19.556Z,15.40
2018-12-14T16:36:47.744Z,18.53
2018-12-14T16:39:15.899Z,16.53
2018-12-14T16:41:44.092Z,15.90
2018-12-14T16:44:12.236Z,15.87
2018-12-14T16:46:40.394Z,14.43
2018-12-14T16:49:08.683Z,14.83
2018-12-14T16:51:36.848Z,14.90
2018-12-14T16:54:07.351Z,17.40
2018-12-14T16:56:35.525Z,23.30
2018-12-14T16:59:03.867Z,14.00
2018-12-14T17:01:32.985Z,17.50
2018-12-14T17:04:01.198Z,17.33
2018-12-14T17:06:29.596Z,15.40
2018-12-14T17:08:58.302Z,16.10
2018-12-14T17:11:26.460Z,16.23
2018-12-14T17:13:54.657Z,16.30
2018-12-14T17:16:22.882Z,13.60
2018-12-14T17:18:51.014Z,16.87
2018-12-14T17:21:19.294Z,15.60
2018-12-14T17:23:47.468Z,16.17
2018-12-14T17:26:15.685Z,17.73
2018-12-14T17:28:43.849Z,21.50
2018-12-14T17:31:12.111Z,19.27
2018-12-14T17:33:40.372Z,16.43
2018-12-14T17:36:08.544Z,17.80
2018-12-14T17:38:36.754Z,19.23
2018-12-14T17:41:04.948Z,17.93
2018-12-14T17:43:33.132Z,18.27
2018-12-14T17:46:01.319Z,18.43
2018-12-14T17:48:29.511Z,16.40
2018-12-14T17:50:57.791Z,17.17
2018-12-14T17:53:25.962Z,17.90
2018-12-14T17:55:55.740Z,17.67
2018-12-14T17:58:25.562Z,20.00
2018-12-14T18:00:58.401Z,18.40
2018-12-14T18:03:23.943Z,16.90
2018-12-14T18:05:52.260Z,17.80
2018-12-14T18:08:20.439Z,18.57
2018-12-14T18:10:48.710Z,18.37
2018-12-14T18:13:16.881Z,15.67
2018-12-14T18:15:46.506Z,17.97
2018-12-14T18:18:14.902Z,16.80
2018-12-14T18:20:43.077Z,17.33
2018-12-14T18:23:11.276Z,17.23
2018-12-14T18:25:39.519Z,20.80
2018-12-14T18:28:07.886Z,18.17
2018-12-14T18:30:36.214Z,20.93
2018-12-14T18:33:04.969Z,17.97
2018-12-14T18:35:33.131Z,19.03
2018-12-14T18:38:01.291Z,19.87
2018-12-14T18:40:29.582Z,21.37
2018-12-14T18:42:57.773Z,21.30
2018-12-14T18:45:25.932Z,19.73
2018-12-14T18:47:54.145Z,17.63
2018-12-14T18:50:22.354Z,18.30
2018-12-14T18:52:50.562Z,19.67
2018-12-14T18:55:18.737Z,19.27
2018-12-14T18:57:46.934Z,19.40
2018-12-14T19:00:15.159Z,22.83
2018-12-14T19:02:43.337Z,18.30
2018-12-14T19:05:11.514Z,20.17
2018-12-14T19:07:39.756Z,19.77
2018-12-14T19:10:07.942Z,19.70
2018-12-14T19:12:36.267Z,24.33
2018-12-14T19:15:04.978Z,24.73
2018-12-14T19:17:33.150Z,26.63
2018-12-14T19:20:01.363Z,23.03
2018-12-14T19:22:29.542Z,24.00
2018-12-14T19:24:57.711Z,21.97
2018-12-14T19:27:25.863Z,27.27
2018-12-14T19:29:54.087Z,19.93
2018-12-14T19:32:22.321Z,20.73
2018-12-14T19:34:50.477Z,20.80
2018-12-14T19:37:18.729Z,23.80
2018-12-14T19:39:46.909Z,23.37
2018-12-14T19:42:15.055Z,21.67
2018-12-14T19:44:43.559Z,21.00
2018-12-14T19:47:11.842Z,19.77
2018-12-14T19:49:40.349Z,20.63
2018-12-14T19:52:08.756Z,21.67
2018-12-14T19:54:37.372Z,21.47
2018-12-14T19:57:05.676Z,21.97
2018-12-14T19:59:34.002Z,23.23
2018-12-14T20:02:02.299Z,22.73
2018-12-14T20:04:30.474Z,22.47
2018-12-14T20:06:58.680Z,23.40
2018-12-14T20:09:26.959Z,21.67
2018-12-14T20:11:55.616Z,21.90
2018-12-14T20:14:24.386Z,22.53
2018-12-14T20:16:52.737Z,21.90
2018-12-14T20:19:20.941Z,23.17
2018-12-14T20:21:49.110Z,29.33
2018-12-14T20:24:17.382Z,25.13
2018-12-14T20:26:45.615Z,22.53
2018-12-14T20:29:13.989Z,23.47
2018-12-14T20:31:42.170Z,25.70
2018-12-14T20:34:10.412Z,23.47
2018-12-14T20:36:38.571Z,24.90
2018-12-14T20:39:07.572Z,25.30
2018-12-14T20:41:35.909Z,25.53
2018-12-14T20:44:04.233Z,23.37
2018-12-14T20:46:32.427Z,27.07
2018-12-14T20:49:00.591Z,23.87
2018-12-14T20:51:28.911Z,26.07
2018-12-14T20:53:57.091Z,26.40
2018-12-14T20:56:27.025Z,25.57
2018-12-14T20:58:55.217Z,26.13
2018-12-14T21:01:23.527Z,23.63
2018-12-14T21:03:51.839Z,28.10
2018-12-14T21:06:20.022Z,27.40
2018-12-14T21:08:48.310Z,25.97
2018-12-14T21:11:16.439Z,25.57
2018-12-14T21:13:44.591Z,25.73
2018-12-14T21:16:12.771Z,26.40
2018-12-14T21:18:41.059Z,25.00
2018-12-14T21:21:09.257Z,23.80
2018-12-14T21:23:37.446Z,25.83
2018-12-14T21:26:05.636Z,25.93
2018-12-14T21:28:33.802Z,25.73
2018-12-14T21:31:02.127Z,27.27
2018-12-14T21:33:30.326Z,29.67
2018-12-14T21:35:58.517Z,25.93
2018-12-14T21:38:26.700Z,31.17
2018-12-14T21:40:54.842Z,29.90
2018-12-14T21:43:23.013Z,31.43
2018-12-14T21:45:51.191Z,30.90
2018-12-14T21:48:19.410Z,27.90
2018-12-14T21:50:47.732Z,28.90
2018-12-14T21:53:16.480Z,25.33
2018-12-14T21:55:44.691Z,27.53
2018-12-14T21:58:13.072Z,29.07
2018-12-14T22:00:41.242Z,28.63
2018-12-14T22:03:09.405Z,26.73
2018-12-14T22:05:37.558Z,27.53
2018-12-14T22:08:05.708Z,34.50
2018-12-14T22:10:34.130Z,26.47
2018-12-14T22:13:02.326Z,27.50
2018-12-14T22:15:30.504Z,26.43
2018-12-14T22:17:58.678Z,28.50
2018-12-14T22:20:26.877Z,26.97
2018-12-14T22:22:55.021Z,28.20
2018-12-14T22:25:23.216Z,30.27
2018-12-14T22:27:52.193Z,28.03
2018-12-14T22:30:20.683Z,29.47
2018-12-14T22:32:48.855Z,31.67
2018-12-14T22:35:17.007Z,27.90
2018-12-14T22:37:45.616Z,28.07
2018-12-14T22:40:13.798Z,30.70
2018-12-14T22:42:41.971Z,30.77
2018-12-14T22:45:10.240Z,31.17
2018-12-14T22:47:38.386Z,30.17
2018-12-14T22:50:06.584Z,31.20
2018-12-14T22:52:34.749Z,28.70
2018-12-14T22:55:03.167Z,30.77
2018-12-14T22:57:31.378Z,35.97
2018-12-14T22:59:59.562Z,30.50
2018-12-14T23:02:27.717Z,42.47
2018-12-14T23:07:29.141Z,31.03
2018-12-14T23:10:04.123Z,30.40
2018-12-14T23:12:32.280Z,30.73
2018-12-14T23:15:00.481Z,33.87
2018-12-14T23:17:28.661Z,32.63
2018-12-14T23:19:56.792Z,34.67
2018-12-14T23:22:25.005Z,31.87
2018-12-14T23:24:53.169Z,32.23
2018-12-14T23:27:21.322Z,34.90
2018-12-14T23:29:49.557Z,33.67
2018-12-14T23:32:17.746Z,31.50
2018-12-14T23:34:45.932Z,49.10
2018-12-14T23:37:14.178Z,33.50
2018-12-14T23:39:42.390Z,29.90
2018-12-14T23:42:10.702Z,30.63
2018-12-14T23:44:38.881Z,32.80
2018-12-14T23:47:07.471Z,31.17
2018-12-14T23:49:35.660Z,33.23
2018-12-14T23:52:03.832Z,32.67
2018-12-14T23:54:32.073Z,32.27
2018-12-14T23:57:00.267Z,37.17
2018-12-14T23:59:28.411Z,33.50
